KMJX/MJX METAR and TAF weather

Enter ICAO airport designator
Station Type Date Time Source
KMJX METAR 2022/10/13 03:56 UTC NOAA

KMJX 130356Z AUTO 00000KT 10SM CLR 10/10 A3008 RMK AO2 SLP188 T01000100 402170028 TSNO


Station Type Date Time Source
KMJX Decoded METAR 2022/10/13 03:56 UTC NOAA

Station name not available
Oct 12, 2022 - 11:56 PM EDT / 2022.10.13 0356 UTC
Wind: Calm:0
Visibility: 10 mile(s):0
Sky conditions: clear
Temperature: 50.0 F (10.0 C)
Dew Point: 50.0 F (10.0 C)
Relative Humidity: 100%
Pressure (altimeter): 30.08 in. Hg (1018 hPa)
ob: KMJX 130356Z AUTO 00000KT 10SM CLR 10/10 A3008 RMK AO2 SLP188 T01000100 402170028 TSNO
cycle: 4

Station Type Date Time Source
KMJX TAF UTC NOAA

Error!

Example: see airport list